Palermo, West Virginia
Current Conditions -  °F | °C
As of 2:51 PM on Monday 26 Jan 2015 (Local Time) from KHTS Reporting Station
Overcast Overcast  
Wind Chill: 21°   Ceiling: 1300
Heat Index: 26°   Visibility: 10mi
Dew Point: 22°   Wind: 5mph
Humidity: 84%   Direction: 280°W
Pressure: 29.82"   Gusts: 17mph
Location:  38.2555°N, 82.2488°W
Report Text: KHTS 261951Z 28004G15KT 10SM OVC013 M03/M06 A2982 RMK AO2 UPB1856E06 SLP105 P0001 T10331056
Loading
Personal Weather Stations






























Interactive Weather Map New forecast layout! Learn more

10-Day Weather Forecast

Advertisements
Track Severe Weather on mobile